Georgetown, South Carolina
Current Conditions -  °F | °C
As of 11:35 AM on Friday 24 Oct 2014 (Local Time) from KGGE Reporting Station
Clear Clear  
Wind Chill: 61°   Ceiling: Unl
Heat Index: 61°   Visibility: 10mi
Dew Point: 50°   Wind: 0mph
Humidity: 68%   Direction: NA
Pressure: 30.07"   Gusts: NA
Location:  33.37°N, 79.28°W
Report Text: KGGE 241535Z AUTO 00000KT 10SM CLR 16/10 A3007 RMK AO2
Loading
Personal Weather Stations






























Interactive Weather Map New forecast layout! Learn more

10-Day Weather Forecast

Advertisements
Track Severe Weather on mobile